Date,TemperatureHighF,TemperatureAvgF,TemperatureLowF,DewpointHighF,DewpointAvgF,DewpointLowF,HumidityHigh,HumidityAvg,HumidityLow,PressureMaxIn,PressureMinIn,WindSpeedMaxMPH,WindSpeedAvgMPH,GustSpeedMaxMPH,PrecipitationSumIn
2013-1-1,39,34,30,36,32,28,92,91,89,30.45,30.32,2,0,3,0.02
2013-1-2,46,36,31,34,30,26,91,80,61,30.32,30.15,7,1,7,0.02
2013-1-3,46,36,30,33,28,25,89,73,57,30.15,30.04,8,1,8,0.08
2013-1-4,47,42,36,44,39,33,92,91,88,30.25,30.11,8,2,10,0.08
2013-1-5,43,42,41,40,38,36,91,84,80,30.15,30.05,3,1,7,0.08
2013-1-6,46,42,40,41,39,38,92,89,83,30.12,29.93,12,3,13,0.16
2013-1-7,50,45,40,49,43,38,96,94,92,30.10,29.76,6,1,8,0.44
2013-1-8,50,46,42,49,44,40,96,93,91,30.11,29.65,9,2,12,0.20
2013-1-9,50,41,35,48,39,33,93,92,91,29.91,29.61,8,1,10,0.87
2013-1-10,41,36,31,39,34,28,93,92,90,30.06,29.89,1,0,2,0.12
2013-1-11,38,31,27,34,28,24,91,90,85,30.29,30.06,3,0,5,0.02
2013-1-12,39,30,26,34,27,23,91,87,79,30.41,30.27,3,0,3,0.00
2013-1-13,36,30,25,30,26,22,89,85,75,30.45,30.39,4,0,5,0.00
2013-1-14,36,34,32,33,31,28,90,88,86,30.52,30.42,2,0,3,0.02
2013-1-15,47,36,32,41,33,29,91,87,76,30.65,30.52,3,0,5,0.02
2013-1-16,38,32,28,34,29,25,90,88,86,30.64,30.48,1,0,2,0.00
2013-1-17,38,32,28,35,30,25,91,90,89,30.49,30.24,2,0,2,0.00
2013-1-18,37,33,30,34,31,27,91,90,90,30.30,30.22,1,0,2,0.00
2013-1-19,37,35,32,34,32,29,91,90,89,30.34,30.29,1,0,2,0.00
2013-1-20,38,35,33,35,33,31,91,91,89,30.37,30.22,1,0,2,0.00
2013-1-21,35,33,31,33,31,29,92,91,90,30.24,30.09,2,0,3,0.00
2013-1-22,38,33,28,35,30,25,92,90,87,30.12,29.86,2,0,2,0.00
2013-1-23,42,39,35,40,36,33,93,89,78,30.07,29.79,5,1,7,0.28
2013-1-24,45,42,40,41,39,38,93,90,82,30.16,29.99,6,1,9,0.26
2013-1-25,50,45,40,46,42,38,94,90,83,30.00,29.87,7,1,9,0.06
2013-1-26,44,41,39,42,39,37,93,92,91,29.97,29.82,6,1,7,0.32
2013-1-27,43,41,39,41,39,37,93,92,91,30.00,29.92,2,0,3,0.30
2013-1-28,42,41,40,40,39,38,93,93,92,30.03,29.94,2,0,3,0.77
2013-1-29,45,43,41,43,41,39,94,94,93,30.28,30.03,3,0,3,0.57
2013-1-30,49,46,43,47,44,42,95,94,92,30.33,30.27,2,0,3,0.48
2013-1-31,49,47,46,47,45,44,94,92,90,30.32,30.24,5,1,6,0.14
2013-2-1,52,46,38,48,43,36,93,91,84,30.36,30.28,2,0,3,0.02
2013-2-2,44,40,36,42,38,34,93,92,90,30.35,30.20,2,0,2,0.00
2013-2-3,47,43,39,45,41,37,94,92,88,30.25,30.15,5,1,6,0.04
2013-2-4,50,46,44,45,43,42,93,89,81,30.16,29.83,7,1,12,0.04
2013-2-5,50,46,44,46,42,41,93,86,78,29.88,29.77,7,2,8,0.04
2013-2-6,48,45,44,42,41,39,88,84,76,29.98,29.74,6,2,13,0.04
2013-2-7,51,43,35,43,38,32,90,82,70,30.14,29.75,8,1,13,0.14
2013-2-8,45,39,32,40,35,29,90,87,80,30.26,30.14,2,0,3,0.04
2013-2-9,45,42,40,42,39,37,92,90,88,30.29,30.21,1,0,2,0.08
2013-2-10,46,40,34,41,37,31,91,88,83,30.33,30.27,2,0,3,0.02
2013-2-11,45,42,40,43,40,37,93,91,89,30.31,30.27,3,0,3,0.10
2013-2-12,48,46,42,45,43,40,93,91,88,30.35,30.22,5,1,6,0.02
2013-2-13,49,46,44,44,43,41,92,88,83,30.45,30.24,3,0,6,0.04
2013-2-14,49,45,43,45,43,40,93,90,85,30.51,30.44,4,1,7,0.08
2013-2-15,55,46,38,48,42,36,92,86,75,30.51,30.13,4,0,7,0.02
2013-2-16,48,44,39,45,41,37,93,89,82,30.15,30.07,6,1,8,0.20
2013-2-17,46,42,38,41,38,34,90,86,79,30.18,30.06,3,0,3,0.02
2013-2-18,47,41,37,40,36,33,89,83,74,30.07,29.71,5,1,6,0.00
2013-2-19,54,43,37,43,36,32,87,77,61,29.95,29.69,4,0,5,0.00
2013-2-20,46,41,38,40,37,34,90,86,78,29.99,29.94,5,1,7,0.02
2013-2-21,44,40,39,40,38,36,91,89,84,29.99,29.95,5,1,8,0.04
2013-2-22,45,41,37,41,38,34,91,88,84,29.88,29.64,10,2,12,0.41
2013-2-23,49,42,38,45,38,36,93,86,74,30.32,29.84,3,0,5,0.20
2013-2-24,47,43,40,40,38,36,87,81,73,30.34,29.89,11,3,18,0.02
2013-2-25,50,44,41,42,38,33,89,78,62,30.25,29.84,7,2,9,0.04
2013-2-26,47,42,36,39,35,32,87,76,64,30.30,30.14,7,2,10,0.02
2013-2-27,54,45,40,44,40,36,89,81,68,30.26,30.15,4,1,7,0.06
2013-2-28,51,45,42,49,43,39,93,92,89,30.23,30.13,8,2,8,0.26
2013-3-1,56,53,51,51,49,48,92,87,82,30.29,30.19,7,2,12,0.02
2013-3-2,56,49,38,49,44,35,89,84,71,30.22,29.99,9,2,10,0.26
2013-3-3,54,43,36,44,38,32,92,82,58,30.27,30.15,5,0,6,0.02
2013-3-4,54,40,32,41,33,29,89,76,58,30.27,29.90,6,0,7,0.02
2013-3-5,53,44,39,41,37,31,85,75,62,29.90,29.69,3,0,3,0.02
2013-3-6,46,42,39,43,39,35,91,88,85,29.84,29.54,2,0,5,0.38
2013-3-7,48,42,37,45,40,34,93,91,89,30.06,29.83,3,0,5,0.65
2013-3-8,54,41,34,47,37,31,92,86,75,30.19,30.03,3,0,5,0.02
2013-3-9,55,42,32,46,36,29,90,81,64,30.45,30.19,4,0,5,0.02
2013-3-10,50,43,37,43,39,33,89,84,75,30.47,30.38,3,0,3,0.00
2013-3-11,57,48,41,45,41,38,89,80,61,30.41,30.11,6,0,7,0.00
2013-3-12,54,51,47,49,47,43,91,87,80,30.11,29.99,6,2,10,0.12
2013-3-13,53,51,50,50,48,47,93,90,87,30.14,30.04,8,2,9,0.24
2013-3-14,52,50,48,49,47,44,93,88,82,30.09,29.97,8,2,22,0.02
2013-3-15,58,52,48,51,48,45,90,85,75,30.15,30.08,5,0,6,0.00
2013-3-16,51,46,38,46,42,35,91,88,78,30.09,29.83,6,1,9,0.34
2013-3-17,52,43,38,44,38,35,92,83,67,30.14,29.91,5,0,5,0.06
2013-3-18,56,45,38,46,37,32,91,76,55,30.20,30.06,6,1,9,0.08
2013-3-19,54,43,35,41,36,31,86,77,57,30.20,29.61,9,1,12,0.02
2013-3-20,57,47,37,48,41,34,94,83,67,29.96,29.32,10,4,14,0.32
2013-3-21,48,41,36,40,36,32,90,81,71,30.15,29.96,9,1,9,0.12
2013-3-22,48,39,35,40,34,30,89,81,68,30.33,30.15,4,0,5,0.32
2013-3-23,57,41,34,41,32,30,87,74,50,30.35,30.25,3,0,6,0.02
2013-3-24,54,42,33,41,34,29,86,74,52,30.27,30.07,3,0,3,0.00
2013-3-25,68,48,35,47,35,30,84,63,38,30.09,29.88,5,1,6,0.00
2013-3-26,64,48,40,46,38,33,83,71,47,29.97,29.92,6,0,6,0.00
2013-3-27,61,50,43,48,42,38,85,76,61,29.95,29.88,4,0,5,0.00
2013-3-28,68,51,42,54,44,38,88,78,56,30.10,29.95,5,0,6,0.00
2013-3-29,70,53,41,54,44,37,88,74,54,30.20,30.10,5,1,7,0.00
2013-3-30,71,52,39,52,42,-100,88,74,51,30.22,30.03,5,0,6,0.00
2013-3-31,75,54,39,53,44,35,87,72,44,30.04,29.85,4,0,6,0.00
2013-4-1,60,51,43,51,45,39,89,81,71,30.10,29.91,3,0,5,0.00
2013-4-2,55,52,47,49,46,43,86,82,76,30.15,30.10,4,0,6,0.00
2013-4-3,70,54,48,54,47,44,88,77,57,30.15,29.91,3,0,5,0.00
2013-4-4,55,52,48,53,48,44,92,87,80,29.91,29.57,5,1,7,0.22
2013-4-5,60,53,49,51,48,45,90,84,69,29.80,29.66,8,2,9,0.06
2013-4-6,55,50,46,47,44,41,90,81,71,29.85,29.64,11,2,13,0.04
2013-4-7,48,45,44,44,42,40,90,87,81,29.83,29.47,3,0,5,0.90
2013-4-8,55,48,44,49,44,41,92,87,75,30.22,29.83,7,0,8,0.10
2013-4-9,55,50,44,48,44,41,90,79,68,30.29,30.13,6,1,10,0.02
2013-4-10,56,51,45,48,45,40,90,80,68,30.20,29.83,12,2,15,0.10
2013-4-11,59,48,41,48,42,36,89,79,62,30.25,30.16,4,0,8,0.14
2013-4-12,49,43,39,42,38,35,88,85,73,30.16,29.63,7,2,10,0.16
2013-4-13,50,44,40,43,39,34,88,82,75,29.94,29.66,10,1,13,0.16
2013-4-14,62,46,40,49,40,35,91,78,59,29.97,29.86,6,1,8,0.06
2013-4-15,59,47,40,48,40,35,88,78,64,30.14,29.90,6,1,8,0.02
2013-4-16,65,47,35,50,38,32,89,73,53,30.35,30.14,4,0,6,0.02
2013-4-17,70,48,39,49,39,34,84,71,48,30.41,30.35,6,1,7,0.00
2013-4-18,50,47,45,46,42,40,92,84,77,30.41,30.16,7,1,12,0.14
2013-4-19,56,51,48,53,48,45,93,90,86,30.16,30.01,5,1,10,0.44
2013-4-20,58,51,48,52,46,44,91,86,75,30.23,30.14,7,0,7,0.14
2013-4-21,57,49,41,48,44,37,91,83,67,30.33,30.18,5,0,7,0.20
2013-4-22,66,47,35,49,38,32,90,73,49,30.48,30.33,6,1,7,0.02
2013-4-23,62,48,36,47,38,32,86,70,45,30.40,30.20,4,0,6,0.00
2013-4-24,73,54,39,52,42,35,87,66,44,30.28,30.02,5,0,6,0.00
2013-4-25,73,55,42,52,43,36,82,66,45,30.09,30.00,3,0,6,0.00
2013-4-26,66,56,45,53,47,40,87,73,64,30.21,30.09,4,1,5,0.00
2013-4-27,55,52,49,49,46,44,88,79,71,30.17,30.09,7,1,9,0.18
2013-4-28,58,52,47,51,46,43,89,83,72,30.17,29.89,7,1,9,0.32
2013-4-29,64,50,44,45,39,34,86,68,46,30.09,29.86,9,2,9,0.06
2013-4-30,57,46,40,43,36,33,82,69,49,30.41,30.09,5,1,7,0.02
2013-5-1,65,49,35,43,37,30,84,65,41,30.53,30.41,6,1,8,0.02
2013-5-2,73,54,41,52,42,35,84,65,45,30.51,30.32,3,0,5,0.00
2013-5-3,73,56,42,54,45,37,85,68,51,30.36,30.18,7,1,7,0.00
2013-5-4,81,62,46,58,48,41,87,62,42,30.20,29.94,4,1,5,0.00
2013-5-5,82,64,48,59,50,42,83,61,41,29.95,29.71,3,0,6,0.00
2013-5-6,82,65,51,60,52,45,82,64,37,29.80,29.69,4,0,5,0.00
2013-5-7,69,58,50,57,51,44,85,76,65,29.93,29.75,5,0,5,0.00
2013-5-8,65,56,49,55,50,45,88,81,69,30.09,29.93,2,0,2,0.00
2013-5-9,65,54,46,57,49,42,90,83,71,30.19,30.07,5,0,6,0.00
2013-5-10,74,58,46,60,49,-100,89,77,59,30.16,30.05,3,0,6,0.00
2013-5-11,74,61,52,60,52,-100,87,75,58,30.13,29.93,3,0,3,0.00
2013-5-12,67,61,57,60,56,51,90,83,76,30.03,29.95,3,0,6,0.00
2013-5-13,67,58,50,59,52,44,89,82,68,30.14,29.86,5,1,12,0.00
2013-5-14,65,55,47,53,46,43,87,73,52,30.18,30.07,5,1,6,0.00
2013-5-15,69,56,45,53,47,40,87,73,51,30.08,29.96,3,0,5,0.00
2013-5-16,71,54,52,60,37,-100,91,80,64,29.97,29.82,3,0,6,0.04
2013-5-17,60,56,53,54,48,-100,89,82,73,29.99,29.88,3,0,5,0.04
2013-5-18,63,57,52,53,50,48,86,78,65,30.22,29.99,3,0,3,0.02
2013-5-19,64,56,50,55,50,45,87,81,67,30.35,30.22,3,0,5,0.02
2013-5-20,69,55,45,56,48,41,89,77,61,30.31,29.87,3,1,6,0.02
2013-5-21,57,51,48,53,47,45,90,87,80,29.88,29.74,3,0,5,0.36
2013-5-22,53,49,47,49,46,44,92,89,84,29.89,29.80,3,0,5,0.16
2013-5-23,62,51,46,54,46,44,92,84,67,29.96,29.88,5,0,6,0.10
2013-5-24,70,55,45,55,47,42,90,75,57,29.99,29.93,3,0,5,0.02
2013-5-25,64,56,50,54,49,46,88,78,59,29.99,29.93,3,0,5,0.02
2013-5-26,65,56,51,56,51,43,90,84,71,29.94,29.90,2,0,3,0.08
2013-5-27,60,56,52,55,52,48,90,86,80,29.91,29.66,7,1,9,0.04
2013-5-28,63,58,53,54,51,49,90,80,70,29.83,29.72,5,1,9,0.02
2013-5-29,57,54,51,52,50,48,91,86,81,29.91,29.63,3,0,3,0.32
2013-5-30,62,54,49,56,50,46,92,87,74,30.19,29.91,3,0,3,0.42
2013-5-31,67,57,51,56,50,45,91,80,60,30.30,30.19,5,1,7,0.02
2013-6-1,76,60,50,58,51,45,89,74,53,30.20,30.00,3,0,3,0.00
2013-6-2,69,60,53,56,52,48,87,75,62,30.04,29.99,3,1,7,0.00
2013-6-3,75,61,49,61,53,45,88,76,58,30.07,30.00,2,0,6,0.00
2013-6-4,78,63,49,62,53,45,89,72,52,30.09,29.96,4,0,5,0.00
2013-6-5,78,62,53,62,54,47,86,76,59,30.04,29.97,5,0,6,0.00
2013-6-6,79,63,51,62,53,47,88,71,55,30.00,29.95,4,0,6,0.00
2013-6-7,72,60,53,57,51,46,81,72,57,30.10,29.95,7,0,7,0.00
2013-6-8,72,59,52,56,50,46,84,72,57,30.14,30.06,3,0,6,0.00
2013-6-9,72,59,51,55,48,44,84,69,52,30.07,29.98,5,1,10,0.00
2013-6-10,74,57,46,57,48,41,86,73,54,29.99,29.83,4,0,6,0.00
2013-6-11,70,58,53,56,49,46,82,73,58,30.04,29.88,3,0,3,0.00
2013-6-12,66,57,51,54,49,46,83,75,57,30.09,30.04,4,0,5,0.02
2013-6-13,69,59,53,57,51,48,88,77,61,30.17,30.09,3,0,6,0.02
2013-6-14,68,58,53,56,50,47,84,77,61,30.19,30.01,5,0,6,0.00
2013-6-15,76,61,48,59,52,44,89,74,54,30.01,29.86,5,1,6,0.00
2013-6-16,73,62,53,61,55,49,87,77,63,30.03,29.91,5,0,7,0.00
2013-6-17,76,61,52,61,53,48,89,77,46,30.04,29.83,6,0,6,0.06
2013-6-18,74,62,55,58,52,48,90,74,45,29.92,29.81,3,0,6,0.06
2013-6-19,69,60,53,57,52,48,89,77,61,29.94,29.86,4,0,5,0.04
2013-6-20,57,56,54,54,52,50,91,86,77,30.03,29.91,2,0,2,0.91
2013-6-21,67,66,65,57,56,56,76,73,68,30.11,30.07,2,1,2,0.00
2013-6-22,75,67,52,59,56,49,89,70,54,30.05,29.80,3,0,5,0.00
2013-6-23,72,65,57,64,59,53,87,81,73,29.80,29.54,2,0,3,0.00
2013-6-24,67,62,58,60,57,54,91,84,76,29.64,29.52,3,0,7,0.10
2013-6-25,72,63,56,63,57,54,93,83,66,29.79,29.62,5,1,5,0.36
2013-6-26,69,61,56,64,58,53,92,88,80,30.02,29.78,3,0,9,0.28
2013-6-27,71,63,59,66,60,56,93,88,81,30.14,29.98,1,0,3,0.08
2013-6-28,79,68,59,70,62,56,92,83,68,30.14,29.98,3,0,3,0.02
2013-6-29,81,70,62,69,62,58,89,77,63,30.03,29.93,5,0,6,0.00
2013-6-30,86,71,58,73,62,54,88,76,57,29.95,29.79,4,0,6,0.00
2013-7-1,80,70,61,66,61,57,87,75,59,29.95,29.83,3,0,6,0.00
2013-7-2,76,64,57,62,56,50,87,75,59,30.04,29.95,3,0,6,0.00
2013-7-3,74,60,54,58,52,47,84,73,57,30.10,29.98,3,0,6,0.00
2013-7-4,72,61,53,60,54,48,87,77,65,30.07,29.96,3,0,3,0.00
2013-7-5,74,62,53,61,54,48,88,77,61,29.99,29.88,2,0,6,0.00
2013-7-6,76,62,54,62,54,50,89,78,61,29.92,29.79,5,1,6,0.00
2013-7-7,76,64,54,63,56,49,87,77,62,29.88,29.80,3,0,3,0.00
2013-7-8,75,62,56,63,54,-100,89,80,66,30.02,29.86,5,0,5,0.00
2013-7-9,80,65,55,64,56,51,89,75,58,30.04,29.94,6,1,9,0.00
2013-7-10,73,59,53,60,50,-100,87,74,62,29.98,29.90,5,1,6,0.00
2013-7-11,69,60,53,57,50,46,82,73,59,30.03,29.93,3,0,5,0.00
2013-7-12,68,58,50,58,51,45,87,78,69,30.05,29.96,4,0,5,0.00
2013-7-13,76,61,49,57,51,44,89,70,51,30.14,30.04,9,1,12,0.00
2013-7-14,74,67,61,55,51,47,61,57,51,29.96,29.93,2,0,5,0.00
2013-7-15,79,62,51,59,51,45,84,68,45,30.01,29.83,5,0,6,0.00
2013-7-16,86,66,54,62,54,48,84,68,44,29.85,29.73,3,0,6,0.00
2013-7-17,73,65,61,61,58,56,86,78,67,30.12,29.80,2,0,7,0.06
2013-7-18,74,63,59,61,56,53,83,77,62,30.17,30.06,5,0,8,0.02
2013-7-19,72,61,53,61,55,49,88,80,68,30.12,29.98,3,0,6,0.00
2013-7-20,71,61,55,62,54,-100,90,82,73,30.04,29.90,3,0,3,0.00
2013-7-21,73,62,54,63,56,51,91,83,70,29.93,29.84,5,0,5,0.00
2013-7-22,59,58,58,54,54,54,86,86,85,29.89,29.88,0,0,0,0.00
2013-11-18,51,50,50,49,48,48,94,93,93,29.73,29.49,3,1,9,0.48
2013-11-19,52,45,39,50,42,30,94,88,70,30.01,29.48,7,1,13,0.42
2013-11-20,43,36,31,33,30,26,88,77,61,30.48,30.01,3,0,3,0.02
2013-11-21,42,33,28,31,27,25,88,79,59,30.63,30.48,3,0,3,0.00
2013-11-22,45,35,29,34,29,25,87,78,61,30.62,30.42,2,0,3,0.00
2013-11-23,50,38,31,39,32,27,88,80,64,30.43,30.14,2,0,2,0.00
2013-11-24,50,39,32,43,35,29,91,86,76,30.20,30.11,3,0,5,0.00
2013-11-25,50,40,33,43,36,31,92,87,74,30.27,30.19,3,0,3,0.00
2013-11-26,49,41,35,43,38,33,94,88,79,30.24,30.06,1,0,5,0.00
2013-11-27,54,45,39,45,40,35,89,83,70,30.05,29.89,2,0,3,0.00
2013-11-28,47,39,35,45,37,33,94,92,89,30.14,29.96,3,0,3,0.00
2013-11-29,47,43,39,45,41,37,93,92,90,30.27,30.14,3,0,5,0.00
2013-11-30,50,48,46,47,43,-100,92,86,81,30.29,30.05,6,1,9,0.10
2013-12-1,53,51,44,50,47,39,94,89,83,30.04,29.68,11,4,20,0.10
2013-12-2,45,40,37,39,36,34,91,85,71,30.00,29.75,5,1,7,0.10
2013-12-3,40,35,30,35,28,25,90,78,63,30.27,30.01,3,0,8,0.02
2013-12-4,37,31,26,29,26,23,88,81,69,30.32,30.25,2,0,3,0.00
2013-12-5,33,29,24,25,22,17,87,77,60,30.29,30.13,3,0,3,0.00
2013-12-6,33,28,24,18,15,11,69,58,46,30.21,30.08,2,1,6,0.00
2013-12-7,23,22,21,11,10,10,61,60,59,30.23,30.21,0,0,0,0.00
2013-12-8,32,28,23,19,18,15,73,66,57,30.56,30.47,2,0,3,0.00
2013-12-9,33,28,21,24,20,15,77,71,64,30.58,30.44,1,0,2,0.00
2013-12-10,38,35,32,32,29,24,83,80,72,30.46,30.34,1,0,3,0.00
2013-12-11,35,34,33,32,30,29,89,87,83,30.36,30.14,1,0,1,0.00
2013-12-12,42,37,31,39,34,29,94,89,77,30.12,29.99,3,0,8,0.81
2013-12-13,47,45,41,46,43,39,95,94,93,30.36,30.06,2,0,3,0.06
2013-12-14,47,45,43,44,41,-100,94,92,87,30.38,30.27,2,0,10,0.02
2013-12-15,50,48,47,47,46,43,94,91,86,30.40,30.27,9,1,10,0.08
2013-12-16,47,44,41,45,42,39,95,93,91,30.44,30.22,1,0,2,0.02
2013-12-17,44,42,40,42,40,38,94,93,91,30.21,30.05,4,0,8,0.00
2013-12-18,44,42,34,42,39,31,93,89,81,30.09,29.97,2,0,5,0.08
2013-12-19,38,33,29,32,30,26,91,86,76,30.31,30.07,3,0,3,0.06
2013-12-20,40,35,32,39,33,29,95,91,86,30.16,29.67,5,1,10,0.32
2013-12-21,44,41,39,43,38,-100,95,93,94,30.10,29.77,0,0,0,0.18
2013-12-22,49,46,44,48,46,43,96,96,95,30.23,30.10,6,1,9,0.40
2013-12-23,52,48,43,49,46,41,96,93,88,30.42,30.06,15,3,20,0.18
2013-12-24,46,40,36,42,38,34,95,93,87,30.57,30.44,1,0,2,0.02
2013-12-25,38,34,32,36,32,30,94,93,92,30.50,30.37,0,0,2,0.00
2013-12-26,42,36,33,40,35,31,95,94,92,30.38,30.15,3,0,3,0.00
2013-12-27,44,40,33,43,38,31,95,94,92,30.30,30.06,5,0,10,0.04
2013-12-28,47,42,38,45,40,-100,96,93,92,30.47,30.31,0,0,2,0.02
2013-12-29,43,40,38,41,38,36,95,94,93,30.43,30.26,1,0,2,0.02
2013-12-30,43,40,38,42,39,36,95,94,94,30.27,30.08,4,0,8,0.02
2013-12-31,46,44,39,44,42,37,94,93,91,30.32,30.14,4,0,7,0.02
2014-1-1,43,40,35,41,38,33,95,94,93,30.36,30.19,1,0,3,0.00
2014-1-2,48,44,41,45,42,39,95,93,85,30.19,29.84,5,1,10,0.30